Time;durP1;ratioP1;P1;durP2;ratioP2;P2;SDS_P1;SDS_P2;PMS_P1;PMS_P2;Temp;Humidity;BMP_temperature;BMP_pressure;BME280_temperature;BME280_humidity;BME280_pressure;Samples;Min_cycle;Max_cycle;Signal;HPM_P1;HPM_P2
2021/10/18 15:40:18;;;;;;;18.08;9.15;;;;;;;19.37;100.00;101608.72;5105577;27;20448;-69
2021/10/18 15:42:46;;;;;;;15.23;8.57;;;;;;;19.47;100.00;101601.56;5109217;28;20052;-68
2021/10/18 15:45:17;;;;;;;14.18;7.93;;;;;;;19.59;100.00;101603.25;5109116;28;20058;-65
2021/10/18 15:47:45;;;;;;;12.73;8.63;;;;;;;19.70;100.00;101591.53;5084300;28;20048;-65
2021/10/18 15:50:14;;;;;;;12.10;7.55;;;;;;;19.77;100.00;101598.59;5057071;28;20463;-65
2021/10/18 15:52:41;;;;;;;11.38;6.13;;;;;;;19.82;100.00;101601.28;5051801;28;20485;-65
2021/10/18 15:55:10;;;;;;;14.18;7.82;;;;;;;19.81;100.00;101603.06;5066055;28;20040;-65
2021/10/18 15:57:39;;;;;;;12.48;8.23;;;;;;;19.86;100.00;101603.00;5058217;28;20045;-65
2021/10/18 16:00:08;;;;;;;13.68;8.65;;;;;;;19.95;100.00;101612.78;5051565;28;20057;-65
2021/10/18 16:02:36;;;;;;;12.57;8.75;;;;;;;20.01;100.00;101610.03;5051275;28;20049;-66
2021/10/18 16:05:05;;;;;;;13.13;8.68;;;;;;;20.06;100.00;101611.75;5067682;28;20049;-65
2021/10/18 16:07:33;;;;;;;11.65;8.80;;;;;;;20.09;100.00;101610.81;5066372;28;20047;-65
2021/10/18 16:10:01;;;;;;;15.55;9.52;;;;;;;20.16;100.00;101612.53;5057337;28;20049;-65
2021/10/18 16:12:28;;;;;;;14.32;9.45;;;;;;;20.17;100.00;101609.84;5066181;28;20515;-65
2021/10/18 16:14:57;;;;;;;13.77;10.15;;;;;;;20.15;99.17;101617.00;5062090;28;20480;-65
2021/10/18 16:17:24;;;;;;;14.95;10.35;;;;;;;20.08;98.31;101626.03;5083500;28;20056;-65
2021/10/18 16:19:54;;;;;;;13.45;8.80;;;;;;;20.06;97.66;101621.59;5085577;28;20408;-66
2021/10/18 16:22:21;;;;;;;16.88;10.13;;;;;;;20.05;96.63;101625.16;5085760;28;20178;-66
2021/10/18 16:24:49;;;;;;;11.88;8.30;;;;;;;20.03;95.87;101632.31;5086496;28;20040;-66
2021/10/18 16:27:16;;;;;;;12.75;7.95;;;;;;;20.06;95.23;101629.63;5086702;28;20066;-64
2021/10/18 16:29:43;;;;;;;12.95;8.25;;;;;;;20.09;94.51;101629.59;5086788;28;20044;-65
2021/10/18 16:32:12;;;;;;;14.45;7.45;;;;;;;20.12;93.46;101633.16;5085445;28;20389;-65
2021/10/18 16:34:40;;;;;;;12.73;8.32;;;;;;;20.13;92.92;101636.72;5076024;28;20495;-66
2021/10/18 16:37:07;;;;;;;9.27;6.10;;;;;;;20.10;92.20;101634.94;5083636;28;20045;-65
2021/10/18 16:39:34;;;;;;;12.43;7.70;;;;;;;20.07;91.46;101634.09;5085257;28;20446;-66
2021/10/18 16:42:02;;;;;;;11.80;7.80;;;;;;;20.09;91.17;101635.84;5080879;28;20058;-66
2021/10/18 16:44:34;;;;;;;15.52;8.27;;;;;;;20.10;90.51;101645.66;5085902;28;20086;-65
2021/10/18 16:47:01;;;;;;;13.32;7.30;;;;;;;20.08;89.85;101638.56;5082674;28;20048;-66
2021/10/18 16:49:30;;;;;;;12.77;6.47;;;;;;;20.08;89.57;101644.81;5069084;28;20040;-66
2021/10/18 16:51:58;;;;;;;12.30;6.57;;;;;;;20.06;89.03;101641.25;5064451;28;20040;-66
2021/10/18 16:54:25;;;;;;;14.65;7.57;;;;;;;20.07;89.06;101644.81;5056221;28;20049;-66
2021/10/18 16:56:53;;;;;;;12.20;7.45;;;;;;;20.07;88.66;101640.34;5065647;28;20439;-66
2021/10/18 16:59:22;;;;;;;10.00;6.82;;;;;;;20.06;87.95;101649.28;5060156;28;20044;-66
2021/10/18 17:01:50;;;;;;;14.35;7.00;;;;;;;20.04;87.75;101656.44;5072567;28;20434;-65
2021/10/18 17:04:17;;;;;;;10.88;7.35;;;;;;;19.98;86.86;101656.50;5058572;28;20053;-65
2021/10/18 17:06:47;;;;;;;10.77;7.82;;;;;;;19.94;86.19;101653.88;5068166;28;20499;-65
2021/10/18 17:09:19;;;;;;;13.63;8.52;;;;;;;19.87;85.96;101651.25;5071414;28;20093;-65
2021/10/18 17:11:47;;;;;;;14.85;8.90;;;;;;;19.84;85.75;101653.94;5061695;28;20041;-65
2021/10/18 17:14:14;;;;;;;12.60;8.48;;;;;;;19.81;85.67;101659.34;5059775;28;20055;-65
2021/10/18 17:16:42;;;;;;;13.70;8.95;;;;;;;19.74;85.53;101649.56;5064373;28;20045;-65
2021/10/18 17:19:09;;;;;;;16.95;8.20;;;;;;;19.71;85.46;101659.41;5072363;28;20040;-65
2021/10/18 17:21:37;;;;;;;15.30;7.78;;;;;;;19.68;85.51;101654.97;5068418;28;20044;-65
2021/10/18 17:24:07;;;;;;;12.43;8.15;;;;;;;19.67;85.45;101663.03;5061027;28;20045;-65
2021/10/18 17:26:34;;;;;;;14.38;7.45;;;;;;;19.63;85.56;101664.81;5053336;28;20392;-65
2021/10/18 17:29:05;;;;;;;11.38;7.13;;;;;;;19.61;85.47;101666.63;5056786;28;20048;-65
2021/10/18 17:31:33;;;;;;;12.85;7.10;;;;;;;19.61;85.46;101673.78;5069060;28;20120;-65
2021/10/18 17:34:00;;;;;;;11.50;7.03;;;;;;;19.58;85.11;101671.09;5064103;28;20051;-65
2021/10/18 17:36:28;;;;;;;13.05;7.47;;;;;;;19.56;84.81;101678.28;5056505;28;20036;-66
2021/10/18 17:38:55;;;;;;;9.52;6.97;;;;;;;19.55;84.70;101682.75;5051958;28;20057;-65
2021/10/18 17:41:24;;;;;;;11.60;7.82;;;;;;;19.54;84.31;101689.00;5059705;28;20599;-65
2021/10/18 17:43:52;;;;;;;10.57;7.65;;;;;;;19.48;83.73;101692.63;5063119;28;20037;-64
2021/10/18 17:46:19;;;;;;;10.75;7.00;;;;;;;19.47;83.58;101687.25;5052545;28;20048;-66
2021/10/18 17:48:47;;;;;;;11.60;7.60;;;;;;;19.43;83.31;101691.69;5067648;28;20036;-65
2021/10/18 17:51:14;;;;;;;16.95;7.00;;;;;;;19.39;83.31;101697.09;5059051;28;20045;-65
2021/10/18 17:53:44;;;;;;;17.40;7.55;;;;;;;19.34;83.26;101694.44;5060905;28;20041;-65
2021/10/18 17:56:12;;;;;;;10.32;6.60;;;;;;;19.32;83.26;101696.22;5049494;28;20044;-65
2021/10/18 17:58:42;;;;;;;11.27;6.40;;;;;;;19.29;83.22;101706.09;5062731;28;20527;-65
2021/10/18 18:01:10;;;;;;;12.48;6.70;;;;;;;19.30;83.25;101706.06;5063881;28;20552;-65
2021/10/18 18:03:38;;;;;;;10.10;6.35;;;;;;;19.34;83.42;101709.63;5058872;28;20439;-65
2021/10/18 18:06:07;;;;;;;12.18;6.45;;;;;;;19.35;83.22;101708.72;5068087;28;20056;-65
2021/10/18 18:08:35;;;;;;;11.05;6.90;;;;;;;19.32;82.81;101711.41;5059429;28;20041;-64
2021/10/18 18:11:03;;;;;;;10.23;7.03;;;;;;;19.35;82.77;101717.66;5053218;28;20068;-64
2021/10/18 18:13:30;;;;;;;15.32;6.40;;;;;;;19.36;83.00;101719.41;5055114;28;20048;-65
2021/10/18 18:15:59;;;;;;;12.25;7.47;;;;;;;19.38;82.76;101716.72;5053341;28;20053;-64
2021/10/18 18:18:27;;;;;;;12.98;7.93;;;;;;;19.37;83.16;101722.97;5059210;28;20067;-66
2021/10/18 18:20:54;;;;;;;14.80;6.85;;;;;;;19.38;83.25;101722.97;5057507;28;20060;-66
2021/10/18 18:23:22;;;;;;;208.45;57.65;;;;;;;19.43;83.42;101725.63;5057281;28;20041;-65
2021/10/18 18:25:50;;;;;;;10.18;7.35;;;;;;;19.46;83.17;101728.34;5062727;28;20132;-65
2021/10/18 18:28:18;;;;;;;12.20;7.72;;;;;;;19.46;83.60;101736.38;5062984;28;20070;-65
2021/10/18 18:30:48;;;;;;;13.57;7.72;;;;;;;19.45;83.59;101727.41;5060692;28;20102;-66
2021/10/18 18:33:18;;;;;;;14.07;8.48;;;;;;;19.44;83.50;101730.97;5059862;28;20130;-66
2021/10/18 18:35:45;;;;;;;12.27;7.47;;;;;;;19.40;83.61;101742.63;5050772;28;20041;-65
2021/10/18 18:38:13;;;;;;;11.85;7.72;;;;;;;19.37;83.71;101739.94;5062105;28;20128;-66
2021/10/18 18:40:41;;;;;;;11.20;6.80;;;;;;;19.34;83.65;101750.69;5058836;28;20134;-66
2021/10/18 18:43:09;;;;;;;10.85;6.88;;;;;;;19.32;83.88;101743.53;5050175;28;20045;-65
2021/10/18 18:45:36;;;;;;;10.63;6.95;;;;;;;19.30;83.75;101748.00;5066824;28;20407;-66
2021/10/18 18:48:04;;;;;;;12.93;7.18;;;;;;;19.26;83.64;101754.28;5054570;28;20094;-65
2021/10/18 18:50:33;;;;;;;15.07;7.93;;;;;;;19.24;83.61;101750.72;5051407;28;20442;-65
2021/10/18 18:53:01;;;;;;;11.57;7.60;;;;;;;19.21;83.16;101750.75;5045658;28;20048;-65
2021/10/18 18:55:29;;;;;;;12.93;7.65;;;;;;;19.20;83.02;101762.34;5060808;28;20050;-65
2021/10/18 18:57:56;;;;;;;12.73;7.35;;;;;;;19.18;82.87;101762.34;5054642;28;20511;-65
2021/10/18 19:00:23;;;;;;;14.95;8.02;;;;;;;19.18;82.55;101766.78;5053054;28;20060;-65
2021/10/18 19:02:51;;;;;;;13.55;7.47;;;;;;;19.16;82.58;101763.25;5055414;28;20049;-65
2021/10/18 19:05:20;;;;;;;13.07;7.82;;;;;;;19.13;82.64;101763.25;5063282;28;20051;-66
2021/10/18 19:07:50;;;;;;;13.38;6.95;;;;;;;19.11;82.23;101758.78;5055992;28;20428;-65
2021/10/18 19:10:20;;;;;;;10.85;6.60;;;;;;;19.09;82.21;101763.28;5054633;28;20025;-66
2021/10/18 19:12:48;;;;;;;10.65;7.20;;;;;;;19.08;82.33;101764.16;5052169;28;20048;-66
2021/10/18 19:15:16;;;;;;;12.18;7.55;;;;;;;19.09;82.28;101768.63;5053746;28;20045;-65
2021/10/18 19:17:46;;;;;;;12.35;7.78;;;;;;;19.10;82.15;101774.84;5057529;28;20044;-65
2021/10/18 19:20:18;;;;;;;12.35;7.95;;;;;;;19.10;82.28;101769.50;5055695;28;20041;-65
2021/10/18 19:22:47;;;;;;;16.23;8.02;;;;;;;19.10;82.04;101758.78;5052120;28;20051;-65
2021/10/18 19:25:16;;;;;;;11.48;7.07;;;;;;;19.08;82.06;101755.25;5060931;28;20056;-65
2021/10/18 19:27:45;;;;;;;12.70;8.02;;;;;;;19.08;81.93;101756.13;5058544;28;20045;-65
2021/10/18 19:30:16;;;;;;;11.45;7.57;;;;;;;19.08;81.63;101758.81;5055346;28;20045;-65
2021/10/18 19:32:45;;;;;;;14.65;9.07;;;;;;;19.07;81.74;101764.16;5052754;28;20048;-65
2021/10/18 19:35:15;;;;;;;16.55;9.38;;;;;;;19.08;82.09;101766.84;5051898;28;20060;-65
2021/10/18 19:37:43;;;;;;;15.77;9.95;;;;;;;19.09;82.01;101762.38;5053409;28;20048;-65
2021/10/18 19:40:11;;;;;;;18.25;9.80;;;;;;;19.10;81.97;101762.34;5048501;28;20037;-65
2021/10/18 19:42:42;;;;;;;18.10;10.30;;;;;;;19.12;81.79;101759.69;5051318;28;20052;-66
2021/10/18 19:45:10;;;;;;;22.45;11.35;;;;;;;19.13;81.99;101772.19;5053086;28;20049;-65
2021/10/18 19:47:37;;;;;;;23.42;11.57;;;;;;;19.15;81.84;101774.84;5050829;28;20045;-65
2021/10/18 19:50:06;;;;;;;23.15;13.75;;;;;;;19.13;81.95;101764.16;5056951;28;20053;-65
2021/10/18 19:52:36;;;;;;;20.17;12.38;;;;;;;19.11;81.72;101763.25;5050365;28;20040;-65
2021/10/18 19:55:05;;;;;;;17.58;10.05;;;;;;;19.11;81.60;101772.16;5046605;28;20123;-66
2021/10/18 19:57:32;;;;;;;13.02;8.40;;;;;;;19.11;81.48;101776.63;5026865;28;20136;-65
2021/10/18 20:00:01;;;;;;;12.70;8.07;;;;;;;19.11;81.30;101780.22;5040902;28;20076;-66
2021/10/18 20:02:28;;;;;;;16.08;8.00;;;;;;;19.11;81.47;101790.03;5059804;28;20033;-65
2021/10/18 20:04:56;;;;;;;13.45;7.40;;;;;;;19.09;81.37;101783.81;5068953;28;20059;-66
2021/10/18 20:07:23;;;;;;;12.35;7.30;;;;;;;19.08;81.42;101782.03;5063257;28;20040;-65
2021/10/18 20:09:51;;;;;;;14.30;7.22;;;;;;;19.06;81.28;101776.66;5066040;28;20041;-65
2021/10/18 20:12:18;;;;;;;9.60;6.25;;;;;;;19.08;81.33;101780.22;5065277;28;20044;-65
2021/10/18 20:14:45;;;;;;;14.55;7.55;;;;;;;19.11;81.42;101782.88;5064346;28;20044;-65
2021/10/18 20:17:14;;;;;;;12.55;6.60;;;;;;;19.17;81.53;101781.06;5064226;28;20049;-65
2021/10/18 20:19:41;;;;;;;11.90;7.20;;;;;;;19.19;81.63;101780.19;5066586;28;20039;-64
2021/10/18 20:22:09;;;;;;;12.68;8.13;;;;;;;19.22;81.84;101776.63;5064361;28;20045;-64
2021/10/18 20:24:36;;;;;;;13.82;7.78;;;;;;;19.23;81.87;101773.06;5064487;28;20386;-64
2021/10/18 20:27:04;;;;;;;16.38;7.45;;;;;;;19.22;81.84;101777.50;5066874;28;20045;-64
2021/10/18 20:29:31;;;;;;;10.45;6.93;;;;;;;19.20;81.84;101773.94;5070078;28;20048;-64
2021/10/18 20:31:58;;;;;;;10.82;7.03;;;;;;;19.20;81.40;101770.38;5072547;28;20051;-65
2021/10/18 20:34:27;;;;;;;14.20;6.85;;;;;;;19.20;81.22;101773.03;5072908;28;20052;-65
2021/10/18 20:36:54;;;;;;;13.65;7.10;;;;;;;19.17;80.92;101775.72;5072808;28;20527;-65
2021/10/18 20:39:22;;;;;;;10.90;6.95;;;;;;;19.12;80.68;101773.06;5073298;28;20407;-65
2021/10/18 20:41:49;;;;;;;9.93;6.50;;;;;;;19.07;80.25;101770.41;5073910;28;20033;-65
2021/10/18 20:44:16;;;;;;;10.07;6.20;;;;;;;19.06;80.25;101776.66;5073577;28;20053;-65
2021/10/18 20:46:44;;;;;;;11.50;6.55;;;;;;;19.05;79.76;101776.66;5072901;28;20043;-65
2021/10/18 20:49:11;;;;;;;9.98;6.15;;;;;;;19.01;79.62;101782.94;5072716;28;20044;-65
2021/10/18 20:51:40;;;;;;;11.27;6.45;;;;;;;18.99;79.50;101776.69;5073660;28;20051;-65
2021/10/18 20:54:07;;;;;;;12.30;6.03;;;;;;;18.97;78.96;101787.38;5073531;28;20527;-65
2021/10/18 20:56:36;;;;;;;11.18;6.22;;;;;;;18.95;78.88;101790.97;5074403;28;20037;-65
2021/10/18 20:59:04;;;;;;;10.88;6.20;;;;;;;18.97;78.81;101787.38;5072690;28;20055;-65
2021/10/18 21:01:31;;;;;;;12.60;5.93;;;;;;;18.96;78.54;101803.47;5072837;28;20040;-65
2021/10/18 21:03:59;;;;;;;10.35;6.20;;;;;;;18.96;78.33;101800.78;5072716;28;20044;-65
2021/10/18 21:06:26;;;;;;;9.00;5.45;;;;;;;18.95;78.13;101802.56;5073690;28;20427;-65
2021/10/18 21:08:55;;;;;;;12.55;5.80;;;;;;;18.97;77.93;101805.25;5072629;28;20044;-65
2021/10/18 21:11:22;;;;;;;10.60;6.25;;;;;;;18.97;77.61;101800.75;5073266;28;20037;-65
2021/10/18 21:13:52;;;;;;;11.07;6.13;;;;;;;18.96;77.73;101799.00;5073095;28;20048;-64
2021/10/18 21:16:20;;;;;;;11.63;6.43;;;;;;;18.92;77.62;101801.66;5073668;28;20466;-65
2021/10/18 21:18:47;;;;;;;11.00;6.40;;;;;;;18.87;77.41;101801.69;5072639;28;20054;-65
2021/10/18 21:21:14;;;;;;;11.25;5.32;;;;;;;18.83;77.71;101786.53;5073366;28;20064;-65
2021/10/18 21:23:42;;;;;;;9.55;5.90;;;;;;;18.77;77.21;101791.00;5073209;28;20040;-65
2021/10/18 21:26:11;;;;;;;10.75;5.60;;;;;;;18.73;77.56;101791.88;5072793;28;20495;-65
2021/10/18 21:28:38;;;;;;;11.52;5.43;;;;;;;18.68;77.64;101792.81;5072283;28;20040;-65
2021/10/18 21:31:05;;;;;;;10.38;5.80;;;;;;;18.71;77.38;101794.56;5072829;28;20044;-65
2021/10/18 21:33:33;;;;;;;12.57;6.07;;;;;;;18.71;77.22;101795.44;5072494;28;20041;-64
2021/10/18 21:36:00;;;;;;;13.05;5.30;;;;;;;18.71;77.10;101800.81;5053163;28;20045;-65
2021/10/18 21:38:27;;;;;;;9.45;4.97;;;;;;;18.72;76.71;101809.72;5067023;28;20067;-64
2021/10/18 21:40:55;;;;;;;10.18;5.65;;;;;;;18.72;76.57;101804.38;5066402;28;20048;-65
2021/10/18 21:43:24;;;;;;;8.85;5.00;;;;;;;18.67;76.41;101801.72;5072485;28;20065;-65
2021/10/18 21:45:51;;;;;;;12.48;5.35;;;;;;;18.68;76.47;101807.97;5072706;28;20032;-65
2021/10/18 21:48:18;;;;;;;11.48;5.28;;;;;;;18.67;76.42;101811.53;5071661;28;20056;-65
2021/10/18 21:50:46;;;;;;;14.13;5.55;;;;;;;18.66;76.08;101815.97;5072640;28;20052;-65
2021/10/18 21:53:13;;;;;;;8.60;5.45;;;;;;;18.62;76.19;101816.00;5071676;28;20052;-64
2021/10/18 21:55:40;;;;;;;12.25;5.60;;;;;;;18.63;76.25;101810.66;5072605;28;20044;-65
2021/10/18 21:58:08;;;;;;;10.02;5.80;;;;;;;18.62;75.90;101818.66;5070717;28;20075;-64
2021/10/18 22:00:38;;;;;;;10.88;5.45;;;;;;;18.57;75.92;101817.78;5072077;28;20037;-65
2021/10/18 22:03:06;;;;;;;13.18;5.22;;;;;;;18.58;75.87;101816.88;5072118;28;20459;-65
2021/10/18 22:05:33;;;;;;;10.38;5.15;;;;;;;18.57;75.89;101818.69;5072754;28;20091;-65
2021/10/18 22:08:01;;;;;;;9.68;4.50;;;;;;;18.57;75.62;101820.47;5071808;28;20048;-64
2021/10/18 22:10:28;;;;;;;9.88;5.13;;;;;;;18.54;75.64;101820.41;5071742;28;20048;-65
2021/10/18 22:12:56;;;;;;;8.30;4.60;;;;;;;18.53;75.64;101814.16;5071670;28;20056;-65
2021/10/18 22:15:25;;;;;;;9.90;4.95;;;;;;;18.53;75.36;101807.91;5071427;28;20059;-65
2021/10/18 22:17:54;;;;;;;10.90;5.28;;;;;;;18.51;75.43;101804.38;5072328;28;20041;-65
2021/10/18 22:20:22;;;;;;;11.77;5.28;;;;;;;18.48;75.27;101805.25;5071420;28;20040;-66
2021/10/18 22:22:49;;;;;;;11.32;5.68;;;;;;;18.46;75.50;101801.69;5071329;28;20045;-65
2021/10/18 22:25:18;;;;;;;8.85;4.93;;;;;;;18.46;75.64;101798.13;5071691;28;20399;-65
2021/10/18 22:27:45;;;;;;;10.40;5.03;;;;;;;18.43;75.10;101808.84;5071946;28;20052;-65
2021/10/18 22:30:14;;;;;;;12.43;6.10;;;;;;;18.39;75.32;101805.25;5070992;28;20033;-65
2021/10/18 22:32:41;;;;;;;10.23;5.75;;;;;;;18.40;75.36;101811.50;5071574;28;20487;-65
2021/10/18 22:35:11;;;;;;;10.45;5.55;;;;;;;18.36;75.28;101815.06;5071224;28;20057;-65
2021/10/18 22:37:39;;;;;;;10.57;5.47;;;;;;;18.36;75.79;101818.63;5071410;28;20037;-65
2021/10/18 22:40:09;;;;;;;11.82;5.55;;;;;;;18.36;75.53;101812.38;5070693;28;20139;-64
2021/10/18 22:42:36;;;;;;;12.15;6.32;;;;;;;18.37;75.53;101814.19;5071038;28;20053;-64
2021/10/18 22:45:05;;;;;;;9.82;6.05;;;;;;;18.37;75.41;101811.50;5071521;28;20055;-64
2021/10/18 22:47:33;;;;;;;14.50;6.30;;;;;;;18.39;75.43;101815.94;5051147;28;20385;-64
2021/10/18 22:50:00;;;;;;;14.43;6.60;;;;;;;18.40;75.39;101808.81;5050262;28;20503;-65
2021/10/18 22:52:29;;;;;;;12.75;6.25;;;;;;;18.37;75.53;101807.06;5051768;28;20045;-65
2021/10/18 22:54:56;;;;;;;16.42;6.22;;;;;;;18.32;76.04;101811.47;5047493;28;20408;-65
2021/10/18 22:57:24;;;;;;;13.38;6.78;;;;;;;18.31;76.31;101813.25;5033152;28;20045;-64
2021/10/18 22:59:51;;;;;;;13.75;7.13;;;;;;;18.31;76.37;101802.56;5031608;28;20041;-64
2021/10/18 23:02:18;;;;;;;14.52;7.13;;;;;;;18.32;76.47;101808.81;5031672;28;20042;-65
2021/10/18 23:04:45;;;;;;;16.40;7.35;;;;;;;18.30;76.42;101802.59;5031931;28;20033;-65
2021/10/18 23:07:13;;;;;;;12.93;7.18;;;;;;;18.27;76.31;101800.78;5031513;28;20049;-65
2021/10/18 23:09:42;;;;;;;11.25;6.50;;;;;;;18.28;76.31;101802.59;5041031;28;20496;-64
2021/10/18 23:12:09;;;;;;;14.07;6.78;;;;;;;18.28;76.34;101809.72;5033203;28;20053;-65
2021/10/18 23:14:37;;;;;;;12.07;6.05;;;;;;;18.27;76.25;101811.50;5032664;28;20052;-65
2021/10/18 23:17:06;;;;;;;12.88;6.50;;;;;;;18.27;76.53;101815.94;5038413;28;20045;-65
2021/10/18 23:19:33;;;;;;;12.07;5.60;;;;;;;18.25;76.19;101809.69;5049162;28;20041;-65
2021/10/18 23:22:00;;;;;;;11.40;6.22;;;;;;;18.29;76.03;101824.88;5067392;28;20040;-65
2021/10/18 23:24:28;;;;;;;16.35;6.55;;;;;;;18.25;75.90;101815.03;5070536;28;20045;-65
2021/10/18 23:26:57;;;;;;;12.68;6.68;;;;;;;18.24;76.01;101816.84;5070514;28;20058;-65
2021/10/18 23:29:24;;;;;;;11.95;6.47;;;;;;;18.24;76.02;101816.84;5069787;28;20090;-64
2021/10/18 23:31:51;;;;;;;12.80;6.95;;;;;;;18.21;75.91;101816.81;5070859;28;20036;-65
2021/10/18 23:34:19;;;;;;;10.73;5.63;;;;;;;18.16;75.92;101820.41;5070854;28;20045;-65
2021/10/18 23:36:46;;;;;;;12.73;6.35;;;;;;;18.13;76.52;101818.59;5070690;28;20404;-65
2021/10/18 23:39:13;;;;;;;14.05;7.00;;;;;;;18.17;76.36;101819.50;5070080;28;20393;-65
2021/10/18 23:41:40;;;;;;;13.82;6.03;;;;;;;18.14;76.34;101820.38;5070623;28;20303;-64
2021/10/18 23:44:09;;;;;;;13.55;6.07;;;;;;;18.15;76.16;101824.84;5070416;28;20381;-65
2021/10/18 23:46:36;;;;;;;13.43;5.82;;;;;;;18.12;76.16;101822.16;5070144;28;20522;-65
2021/10/18 23:49:04;;;;;;;13.30;6.22;;;;;;;18.14;76.32;101827.50;5071051;28;20051;-65
2021/10/18 23:51:31;;;;;;;14.32;6.03;;;;;;;18.15;76.19;101821.28;5070476;28;20040;-65
2021/10/18 23:53:59;;;;;;;11.35;6.25;;;;;;;18.14;76.36;101815.03;5070302;28;20049;-65
2021/10/18 23:56:27;;;;;;;14.52;7.38;;;;;;;18.13;76.23;101810.56;5070392;28;20051;-66
2021/10/18 23:58:54;;;;;;;11.30;6.32;;;;;;;18.13;76.31;101820.38;5070511;28;20051;-65
